createdAt,value
2022-08-09T00:01:52.660Z,23.56
2022-08-09T00:05:02.920Z,23.63
2022-08-09T00:08:32.151Z,23.50
2022-08-09T00:12:04.084Z,23.50
2022-08-09T00:14:57.701Z,23.50
2022-08-09T00:18:11.950Z,23.50
2022-08-09T00:21:14.664Z,23.38
2022-08-09T00:24:18.723Z,23.63
2022-08-09T00:27:22.002Z,23.38
2022-08-09T00:30:26.136Z,23.31
2022-08-09T00:33:32.731Z,23.50
2022-08-09T00:36:52.042Z,23.13
2022-08-09T00:40:13.663Z,23.25
2022-08-09T00:44:15.388Z,23.25
2022-08-09T00:46:57.457Z,23.31
2022-08-09T00:50:01.312Z,23.19
2022-08-09T00:53:10.409Z,23.25
2022-08-09T00:56:15.085Z,23.25
2022-08-09T00:59:20.171Z,23.31
2022-08-09T01:02:47.033Z,23.19
2022-08-09T01:06:17.473Z,23.06
2022-08-09T01:09:39.125Z,22.94
2022-08-09T01:12:56.828Z,22.88
2022-08-09T01:16:00.847Z,22.81
2022-08-09T01:19:12.452Z,22.81
2022-08-09T01:23:03.283Z,22.81
2022-08-09T01:26:19.114Z,23.00
2022-08-09T01:29:41.249Z,22.56
2022-08-09T01:32:55.621Z,22.81
2022-08-09T01:36:04.550Z,23.00
2022-08-09T01:39:06.835Z,22.63
2022-08-09T01:42:11.070Z,22.63
2022-08-09T01:45:13.881Z,22.75
2022-08-09T01:48:18.486Z,22.81
2022-08-09T01:51:22.777Z,22.56
2022-08-09T01:54:33.263Z,22.69
2022-08-09T01:57:45.986Z,22.56
2022-08-09T02:00:55.002Z,22.75
2022-08-09T02:03:58.179Z,22.69
2022-08-09T02:07:18.460Z,22.50
2022-08-09T02:10:33.910Z,22.56
2022-08-09T02:13:40.685Z,22.69
2022-08-09T02:16:58.973Z,22.50
2022-08-09T02:20:02.255Z,22.44
2022-08-09T02:23:39.598Z,22.38
2022-08-09T02:26:47.751Z,22.56
2022-08-09T02:29:52.265Z,22.38
2022-08-09T02:32:56.698Z,22.19
2022-08-09T02:36:04.373Z,22.31
2022-08-09T02:39:14.381Z,22.38
2022-08-09T02:42:27.752Z,22.13
2022-08-09T02:45:35.324Z,22.06
2022-08-09T02:48:39.076Z,21.94
2022-08-09T02:51:55.415Z,22.19
2022-08-09T02:54:58.621Z,22.38
2022-08-09T02:58:37.173Z,22.25
2022-08-09T03:01:43.250Z,22.19
2022-08-09T03:04:55.731Z,22.13
2022-08-09T03:08:01.756Z,22.13
2022-08-09T03:11:04.922Z,22.06
2022-08-09T03:14:13.415Z,22.00
2022-08-09T03:17:26.434Z,22.00
2022-08-09T03:20:30.325Z,22.13
2022-08-09T03:23:32.935Z,22.00
2022-08-09T03:26:35.370Z,21.88
2022-08-09T03:29:58.252Z,21.88
2022-08-09T03:33:17.564Z,21.19
2022-08-09T03:36:22.050Z,20.38
2022-08-09T03:39:37.788Z,20.25
2022-08-09T03:42:42.919Z,20.31
2022-08-09T03:46:04.705Z,20.63
2022-08-09T03:49:09.535Z,20.31
2022-08-09T03:52:12.955Z,20.06
2022-08-09T03:55:15.432Z,19.81
2022-08-09T03:58:21.086Z,20.06
2022-08-09T04:01:24.916Z,19.94
2022-08-09T04:04:32.525Z,19.81
2022-08-09T04:07:53.320Z,20.13
2022-08-09T04:11:01.799Z,20.06
2022-08-09T04:14:37.231Z,20.13
2022-08-09T04:17:26.265Z,20.13
2022-08-09T04:20:32.663Z,19.88
2022-08-09T04:23:35.056Z,20.00
2022-08-09T04:26:38.077Z,19.88
2022-08-09T04:29:40.559Z,19.94
2022-08-09T04:32:52.821Z,20.06
2022-08-09T04:35:56.311Z,20.06
2022-08-09T04:39:01.767Z,19.69
2022-08-09T04:42:04.223Z,19.88
2022-08-09T04:45:11.764Z,19.69
2022-08-09T04:48:15.301Z,19.81
2022-08-09T04:51:17.524Z,19.69
2022-08-09T04:54:22.345Z,19.63
2022-08-09T04:57:26.836Z,19.63
2022-08-09T05:00:48.939Z,19.63
2022-08-09T05:03:51.089Z,19.56
2022-08-09T05:07:00.939Z,19.63
2022-08-09T05:10:03.697Z,19.75
2022-08-09T05:13:05.860Z,19.81
2022-08-09T05:16:15.041Z,19.88
2022-08-09T05:19:24.380Z,19.63
2022-08-09T05:22:36.374Z,19.75
2022-08-09T05:25:50.833Z,19.63
2022-08-09T05:28:53.305Z,19.56
2022-08-09T05:32:00.106Z,19.56
2022-08-09T05:35:02.157Z,20.06
2022-08-09T05:38:04.207Z,19.88
2022-08-09T05:41:12.698Z,20.38
2022-08-09T05:44:16.077Z,20.25
2022-08-09T05:47:27.311Z,20.50
2022-08-09T05:50:44.349Z,20.31
2022-08-09T05:53:57.814Z,20.38
2022-08-09T05:57:00.340Z,20.31
2022-08-09T06:00:07.945Z,20.69
2022-08-09T06:03:11.391Z,20.69
2022-08-09T06:06:22.915Z,20.63
2022-08-09T06:09:55.188Z,21.00
2022-08-09T06:12:50.420Z,21.06
2022-08-09T06:16:05.660Z,21.13
2022-08-09T06:19:07.711Z,21.25
2022-08-09T06:22:15.368Z,21.31
2022-08-09T06:25:17.865Z,21.31
2022-08-09T06:28:27.540Z,21.56
2022-08-09T06:31:39.828Z,21.56
2022-08-09T06:34:57.819Z,21.69
2022-08-09T06:38:06.074Z,21.88
2022-08-09T06:41:18.381Z,21.88
2022-08-09T06:44:21.586Z,21.94
2022-08-09T06:47:24.016Z,22.06
2022-08-09T06:50:26.278Z,22.13
2022-08-09T06:53:38.693Z,22.06
2022-08-09T06:56:45.592Z,22.13
2022-08-09T07:00:51.954Z,22.25
2022-08-09T07:03:11.087Z,22.38
2022-08-09T07:06:13.261Z,22.44
2022-08-09T07:09:55.984Z,22.56
2022-08-09T07:12:42.179Z,23.19
2022-08-09T07:16:35.097Z,23.44
2022-08-09T07:19:07.709Z,23.56
2022-08-09T07:22:10.706Z,23.69
2022-08-09T07:25:13.701Z,23.75
2022-08-09T07:28:19.210Z,23.81
2022-08-09T07:31:28.412Z,23.88
2022-08-09T07:34:40.164Z,23.94
2022-08-09T07:37:45.694Z,24.00
2022-08-09T07:41:07.979Z,24.00
2022-08-09T07:44:11.783Z,24.06
2022-08-09T07:47:16.215Z,24.13
2022-08-09T07:50:19.927Z,24.19
2022-08-09T07:54:01.648Z,24.13
2022-08-09T07:56:58.486Z,24.19
2022-08-09T08:00:02.976Z,24.25
2022-08-09T08:03:08.298Z,24.31
2022-08-09T08:06:10.657Z,24.44
2022-08-09T08:09:38.469Z,24.50
2022-08-09T08:12:45.120Z,24.56
2022-08-09T08:15:48.727Z,24.56
2022-08-09T08:18:51.806Z,24.69
2022-08-09T08:21:54.719Z,24.69
2022-08-09T08:24:58.015Z,24.75
2022-08-09T08:28:00.113Z,24.63
2022-08-09T08:31:14.164Z,24.63
2022-08-09T08:34:25.199Z,24.75
2022-08-09T08:37:41.944Z,24.75
2022-08-09T08:40:52.968Z,24.75
2022-08-09T08:43:59.300Z,24.94
2022-08-09T08:47:13.066Z,24.94
2022-08-09T08:50:18.068Z,25.00
2022-08-09T08:53:22.068Z,25.06
2022-08-09T08:56:28.226Z,25.13
2022-08-09T08:59:44.467Z,25.19
2022-08-09T09:02:53.307Z,25.19
2022-08-09T09:06:03.043Z,25.19
2022-08-09T09:09:21.295Z,25.25
2022-08-09T09:12:34.397Z,25.25
2022-08-09T09:15:38.671Z,25.25
2022-08-09T09:18:48.066Z,25.25
2022-08-09T09:22:13.883Z,25.31
2022-08-09T09:26:04.879Z,25.38
2022-08-09T09:29:11.120Z,25.38
2022-08-09T09:32:34.334Z,25.38
2022-08-09T09:36:20.846Z,25.38
2022-08-09T09:39:54.965Z,25.31
2022-08-09T09:42:57.641Z,25.38
2022-08-09T09:49:49.956Z,25.38
2022-08-09T09:52:56.382Z,25.38
2022-08-09T09:56:05.300Z,25.44
2022-08-09T09:59:09.665Z,25.38
2022-08-09T10:02:13.649Z,25.38
2022-08-09T10:05:26.832Z,25.44
2022-08-09T10:08:29.509Z,25.44
2022-08-09T10:11:59.037Z,25.44
2022-08-09T10:15:17.685Z,25.38
2022-08-09T10:18:39.183Z,25.50
2022-08-09T10:21:53.885Z,25.38
2022-08-09T10:24:56.068Z,25.38
2022-08-09T10:27:58.338Z,25.38
2022-08-09T10:34:33.744Z,25.38
2022-08-09T10:37:39.100Z,25.38
2022-08-09T10:40:44.720Z,25.38
2022-08-09T10:43:59.512Z,25.38
2022-08-09T10:48:17.414Z,25.38
2022-08-09T10:51:14.505Z,25.38
2022-08-09T10:54:22.265Z,25.38
2022-08-09T10:57:36.314Z,25.38
2022-08-09T11:01:35.853Z,25.44
2022-08-09T11:04:19.821Z,25.44
2022-08-09T11:07:56.964Z,25.44
2022-08-09T11:10:59.799Z,25.44
2022-08-09T11:14:35.209Z,25.50
2022-08-09T11:17:46.063Z,25.44
2022-08-09T11:20:49.720Z,25.38
2022-08-09T11:24:04.128Z,25.44
2022-08-09T11:28:04.127Z,25.44
2022-08-09T11:30:55.454Z,25.38
2022-08-09T11:34:02.957Z,25.50
2022-08-09T11:37:07.568Z,25.56
2022-08-09T11:40:13.093Z,25.63
2022-08-09T11:43:26.820Z,25.63
2022-08-09T11:46:54.944Z,25.63
2022-08-09T11:50:56.581Z,25.69
2022-08-09T11:53:59.917Z,25.81
2022-08-09T11:56:48.291Z,25.88
2022-08-09T11:59:52.421Z,25.94
2022-08-09T12:02:57.347Z,25.94
2022-08-09T12:06:02.148Z,26.00
2022-08-09T12:09:15.217Z,26.00
2022-08-09T12:12:28.650Z,26.13
2022-08-09T12:15:49.919Z,26.19
2022-08-09T12:18:54.302Z,26.19
2022-08-09T12:22:01.905Z,26.25
2022-08-09T12:25:37.541Z,26.31
2022-08-09T12:29:14.887Z,26.25
2022-08-09T12:32:13.398Z,26.44
2022-08-09T12:35:21.664Z,26.31
2022-08-09T12:38:37.790Z,26.38
2022-08-09T12:41:40.945Z,26.38
2022-08-09T12:44:46.371Z,26.38
2022-08-09T12:47:54.900Z,26.38
2022-08-09T12:50:59.398Z,26.44
2022-08-09T12:54:03.468Z,26.50
2022-08-09T12:57:05.628Z,26.44
2022-08-09T13:00:15.671Z,26.50
2022-08-09T13:03:53.142Z,26.50
2022-08-09T13:06:54.123Z,26.44
2022-08-09T13:10:06.112Z,26.56
2022-08-09T13:13:09.585Z,26.56
2022-08-09T13:16:15.885Z,26.56
2022-08-09T13:20:06.979Z,26.63
2022-08-09T13:23:01.217Z,26.63
2022-08-09T13:26:10.118Z,26.69
2022-08-09T13:29:42.122Z,26.63
2022-08-09T13:32:50.136Z,26.69
2022-08-09T13:36:38.658Z,26.75
2022-08-09T13:41:19.451Z,26.69
2022-08-09T13:42:37.207Z,26.75
2022-08-09T13:46:42.352Z,26.81
2022-08-09T13:49:02.055Z,26.81
2022-08-09T13:52:09.245Z,26.81
2022-08-09T13:55:13.608Z,26.81
2022-08-09T13:58:15.920Z,26.88
2022-08-09T14:01:56.443Z,26.94
2022-08-09T14:04:47.488Z,27.00
2022-08-09T14:08:06.108Z,27.00
2022-08-09T14:11:16.378Z,27.06
2022-08-09T14:14:25.705Z,26.88
2022-08-09T14:17:32.681Z,26.88
2022-08-09T14:20:51.371Z,26.81
2022-08-09T14:23:57.054Z,26.69
2022-08-09T14:27:01.342Z,26.50
2022-08-09T14:30:34.522Z,26.69
2022-08-09T14:33:27.435Z,26.75
2022-08-09T14:36:35.397Z,26.81
2022-08-09T14:39:46.739Z,27.06
2022-08-09T14:42:50.717Z,26.94
2022-08-09T14:46:57.173Z,26.88
2022-08-09T14:49:16.253Z,26.94
2022-08-09T14:52:18.503Z,27.00
2022-08-09T14:55:21.476Z,27.19
2022-08-09T14:58:23.904Z,27.06
2022-08-09T15:01:28.408Z,27.00
2022-08-09T15:04:30.799Z,27.06
2022-08-09T15:07:35.443Z,27.13
2022-08-09T15:10:38.187Z,27.19
2022-08-09T15:13:56.837Z,27.19
2022-08-09T15:17:04.921Z,27.19
2022-08-09T15:20:08.894Z,27.25
2022-08-09T15:24:01.586Z,27.25
2022-08-09T15:26:45.980Z,27.25
2022-08-09T15:30:56.406Z,27.25
2022-08-09T15:33:10.920Z,27.31
2022-08-09T15:36:29.135Z,27.31
2022-08-09T15:39:34.647Z,27.31
2022-08-09T15:42:52.835Z,27.38
2022-08-09T15:46:28.302Z,27.38
2022-08-09T15:49:22.272Z,27.44
2022-08-09T15:52:26.028Z,27.38
2022-08-09T15:55:28.984Z,27.31
2022-08-09T15:58:37.328Z,27.31
2022-08-09T16:01:41.471Z,27.44
2022-08-09T16:04:45.191Z,27.44
2022-08-09T16:07:51.944Z,27.44
2022-08-09T16:10:56.202Z,27.50
2022-08-09T16:14:03.759Z,27.44
2022-08-09T16:17:08.769Z,27.44
2022-08-09T16:20:12.771Z,27.44
2022-08-09T16:23:15.038Z,27.44
2022-08-09T16:26:34.435Z,27.44
2022-08-09T16:29:50.623Z,27.50
2022-08-09T16:33:11.257Z,27.50
2022-08-09T16:36:18.777Z,27.50
2022-08-09T16:39:21.179Z,27.44
2022-08-09T16:42:28.189Z,27.44
2022-08-09T16:45:30.527Z,27.44
2022-08-09T16:48:39.302Z,27.44
2022-08-09T16:51:55.575Z,27.44
2022-08-09T16:55:00.444Z,27.31
2022-08-09T16:58:08.814Z,27.25
2022-08-09T17:01:12.629Z,27.25
2022-08-09T17:04:26.019Z,27.19
2022-08-09T17:08:43.135Z,27.19
2022-08-09T17:10:52.973Z,27.13
2022-08-09T17:14:01.319Z,27.06
2022-08-09T17:17:23.298Z,26.94
2022-08-09T17:20:30.311Z,26.94
2022-08-09T17:24:27.115Z,26.94
2022-08-09T17:27:01.102Z,26.88
2022-08-09T17:30:14.195Z,26.88
2022-08-09T17:33:21.973Z,26.88
2022-08-09T17:36:25.070Z,26.81
2022-08-09T17:39:28.119Z,26.81
2022-08-09T17:42:55.621Z,26.88
2022-08-09T17:46:09.110Z,26.81
2022-08-09T17:49:11.825Z,26.81
2022-08-09T17:52:22.457Z,26.81
2022-08-09T17:55:24.755Z,26.75
2022-08-09T17:58:47.118Z,26.69
2022-08-09T18:02:06.680Z,26.75
2022-08-09T18:05:12.971Z,26.69
2022-08-09T18:08:15.430Z,26.69
2022-08-09T18:11:18.836Z,26.69
2022-08-09T18:14:26.382Z,26.69
2022-08-09T18:18:01.782Z,26.69
2022-08-09T18:21:00.059Z,26.69
2022-08-09T18:24:11.440Z,26.63
2022-08-09T18:27:18.762Z,26.63
2022-08-09T18:30:49.406Z,26.56
2022-08-09T18:33:53.202Z,26.56
2022-08-09T18:36:56.103Z,26.56
2022-08-09T18:39:58.537Z,26.56
2022-08-09T18:43:00.786Z,26.50
2022-08-09T18:46:51.369Z,26.50
2022-08-09T18:49:26.559Z,26.56
2022-08-09T18:52:35.212Z,26.50
2022-08-09T18:55:45.530Z,26.56
2022-08-09T18:59:00.935Z,26.63
2022-08-09T19:02:03.700Z,26.44
2022-08-09T19:05:19.664Z,26.50
2022-08-09T19:08:29.832Z,26.50
2022-08-09T19:11:37.706Z,26.50
2022-08-09T19:14:40.600Z,26.50
2022-08-09T19:17:56.212Z,26.50
2022-08-09T19:21:00.841Z,26.44
2022-08-09T19:24:36.191Z,26.44
2022-08-09T19:27:28.685Z,26.38
2022-08-09T19:30:32.187Z,26.38
2022-08-09T19:33:34.595Z,26.44
2022-08-09T19:36:36.712Z,26.38
2022-08-09T19:40:03.254Z,26.38
2022-08-09T19:43:02.052Z,26.38
2022-08-09T19:46:04.805Z,26.31
2022-08-09T19:50:09.442Z,26.31
2022-08-09T19:52:29.239Z,26.31
2022-08-09T19:56:03.285Z,26.31
2022-08-09T19:59:39.618Z,26.31
2022-08-09T20:04:23.750Z,26.25
2022-08-09T20:05:46.997Z,26.25
2022-08-09T20:08:56.685Z,26.25
2022-08-09T20:12:02.564Z,26.25
2022-08-09T20:16:32.025Z,26.25
2022-08-09T20:18:28.534Z,26.06
2022-08-09T20:21:40.668Z,25.88
2022-08-09T20:24:54.068Z,25.75
2022-08-09T20:27:56.642Z,25.69
2022-08-09T20:30:58.939Z,25.63
2022-08-09T20:34:01.997Z,25.56
2022-08-09T20:37:04.543Z,25.63
2022-08-09T20:40:15.321Z,25.56
2022-08-09T20:43:24.559Z,25.56
2022-08-09T20:46:41.683Z,25.44
2022-08-09T20:49:46.460Z,25.44
2022-08-09T20:52:48.639Z,25.44
2022-08-09T20:56:02.431Z,25.44
2022-08-09T20:59:05.032Z,25.38
2022-08-09T21:02:08.033Z,25.38
2022-08-09T21:05:51.580Z,25.31
2022-08-09T21:08:36.366Z,25.31
2022-08-09T21:15:02.615Z,25.25
2022-08-09T21:18:11.090Z,25.31
2022-08-09T21:21:52.355Z,25.25
2022-08-09T21:25:08.465Z,25.31
2022-08-09T21:28:15.914Z,25.31
2022-08-09T21:31:20.017Z,25.31
2022-08-09T21:34:29.096Z,25.31
2022-08-09T21:37:35.630Z,25.25
2022-08-09T21:40:50.579Z,25.25
2022-08-09T21:43:57.004Z,25.19
2022-08-09T21:47:00.765Z,25.19
2022-08-09T21:50:04.729Z,25.19
2022-08-09T21:53:23.874Z,25.25
2022-08-09T21:56:43.571Z,25.19
2022-08-09T21:59:51.896Z,25.19
2022-08-09T22:02:58.082Z,25.19
2022-08-09T22:06:01.945Z,25.19
2022-08-09T22:09:05.017Z,25.19
2022-08-09T22:12:18.735Z,25.13
2022-08-09T22:15:35.190Z,25.19
2022-08-09T22:18:52.148Z,25.19
2022-08-09T22:21:56.902Z,25.25
2022-08-09T22:26:07.937Z,25.19
2022-08-09T22:28:32.486Z,25.25
2022-08-09T22:31:36.267Z,25.19
2022-08-09T22:34:41.041Z,25.25
2022-08-09T22:37:43.501Z,25.19
2022-08-09T22:40:48.701Z,25.25
2022-08-09T22:44:02.221Z,25.19
2022-08-09T22:48:12.676Z,25.25
2022-08-09T22:50:29.813Z,25.31
2022-08-09T22:53:33.362Z,25.25
2022-08-09T22:56:46.466Z,25.31
2022-08-09T22:59:56.359Z,25.25
2022-08-09T23:03:00.683Z,25.31
2022-08-09T23:06:02.818Z,25.25
2022-08-09T23:09:06.899Z,25.19
2022-08-09T23:12:09.171Z,25.19
2022-08-09T23:15:12.086Z,25.25
2022-08-09T23:18:14.147Z,25.19
2022-08-09T23:21:24.532Z,25.19
2022-08-09T23:24:33.017Z,25.25
2022-08-09T23:27:35.475Z,25.19
2022-08-09T23:30:37.742Z,25.25
2022-08-09T23:33:39.893Z,25.19
2022-08-09T23:36:42.011Z,25.19
2022-08-09T23:39:44.124Z,25.19
2022-08-09T23:42:46.340Z,25.19
2022-08-09T23:45:48.738Z,25.13
2022-08-09T23:48:50.838Z,25.00
2022-08-09T23:51:53.686Z,25.06
2022-08-09T23:54:55.823Z,25.13
2022-08-09T23:58:10.608Z,25.06
